sensor_id;sensor_type;location;lat;lon;timestamp;pressure;altitude;pressure_sealevel;temperature;humidity
15694;BME280;7947;48.834;9.132;2023-05-10T00:00:32;97558.91;;;15.49;94.54
15694;BME280;7947;48.834;9.132;2023-05-10T00:03:34;97557.81;;;15.42;94.36
15694;BME280;7947;48.834;9.132;2023-05-10T00:06:37;97560.03;;;15.31;94.46
15694;BME280;7947;48.834;9.132;2023-05-10T00:09:40;97565.75;;;15.21;94.96
15694;BME280;7947;48.834;9.132;2023-05-10T00:12:43;97567.50;;;15.17;94.34
15694;BME280;7947;48.834;9.132;2023-05-10T00:15:47;97564.16;;;15.11;95.31
15694;BME280;7947;48.834;9.132;2023-05-10T00:18:50;97563.53;;;15.06;95.97
15694;BME280;7947;48.834;9.132;2023-05-10T00:21:52;97564.78;;;15.00;95.40
15694;BME280;7947;48.834;9.132;2023-05-10T00:24:55;97563.34;;;15.02;94.35
15694;BME280;7947;48.834;9.132;2023-05-10T00:27:58;97567.50;;;15.00;94.64
15694;BME280;7947;48.834;9.132;2023-05-10T00:31:04;97556.81;;;14.95;94.52
15694;BME280;7947;48.834;9.132;2023-05-10T00:34:06;97553.16;;;14.91;95.09
15694;BME280;7947;48.834;9.132;2023-05-10T00:37:09;97555.72;;;14.96;94.52
15694;BME280;7947;48.834;9.132;2023-05-10T00:40:12;97561.91;;;14.88;94.24
15694;BME280;7947;48.834;9.132;2023-05-10T00:43:16;97562.22;;;14.86;94.47
15694;BME280;7947;48.834;9.132;2023-05-10T00:46:20;97573.81;;;14.87;94.11
15694;BME280;7947;48.834;9.132;2023-05-10T00:49:23;97581.25;;;14.81;94.25
15694;BME280;7947;48.834;9.132;2023-05-10T00:52:26;97581.25;;;14.81;94.31
15694;BME280;7947;48.834;9.132;2023-05-10T00:55:29;97578.72;;;14.76;94.44
15694;BME280;7947;48.834;9.132;2023-05-10T00:58:32;97586.03;;;14.76;94.90
15694;BME280;7947;48.834;9.132;2023-05-10T01:01:36;97598.09;;;14.78;93.78
15694;BME280;7947;48.834;9.132;2023-05-10T01:04:40;97590.44;;;14.72;93.19
15694;BME280;7947;48.834;9.132;2023-05-10T01:07:43;97598.38;;;14.68;93.23
15694;BME280;7947;48.834;9.132;2023-05-10T01:10:46;97591.22;;;14.64;92.96
15694;BME280;7947;48.834;9.132;2023-05-10T01:13:54;97589.00;;;14.57;93.73
15694;BME280;7947;48.834;9.132;2023-05-10T01:16:59;97590.91;;;14.57;93.25
15694;BME280;7947;48.834;9.132;2023-05-10T01:20:04;97585.66;;;14.52;93.35
15694;BME280;7947;48.834;9.132;2023-05-10T01:23:24;97594.19;;;14.45;93.71
15694;BME280;7947;48.834;9.132;2023-05-10T01:26:59;97596.25;;;14.39;93.32
15694;BME280;7947;48.834;9.132;2023-05-10T01:30:33;97595.00;;;14.45;93.43
15694;BME280;7947;48.834;9.132;2023-05-10T01:33:43;97597.22;;;14.43;93.71
15694;BME280;7947;48.834;9.132;2023-05-10T01:36:51;97599.91;;;14.43;94.34
15694;BME280;7947;48.834;9.132;2023-05-10T01:40:01;97607.84;;;14.40;94.14
15694;BME280;7947;48.834;9.132;2023-05-10T01:43:23;97597.00;;;14.31;94.75
15694;BME280;7947;48.834;9.132;2023-05-10T01:46:33;97597.81;;;14.32;94.70
15694;BME280;7947;48.834;9.132;2023-05-10T01:49:41;97607.31;;;14.29;94.80
15694;BME280;7947;48.834;9.132;2023-05-10T01:52:51;97614.16;;;14.35;94.92
15694;BME280;7947;48.834;9.132;2023-05-10T01:55:55;97613.84;;;14.37;95.09
15694;BME280;7947;48.834;9.132;2023-05-10T01:58:59;97612.06;;;14.32;94.90
15694;BME280;7947;48.834;9.132;2023-05-10T02:02:04;97617.78;;;14.31;95.50
15694;BME280;7947;48.834;9.132;2023-05-10T02:05:12;97619.78;;;14.25;95.49
15694;BME280;7947;48.834;9.132;2023-05-10T02:08:16;97622.78;;;14.24;95.69
15694;BME280;7947;48.834;9.132;2023-05-10T02:11:21;97622.63;;;14.20;96.16
15694;BME280;7947;48.834;9.132;2023-05-10T02:14:25;97612.94;;;14.19;96.07
15694;BME280;7947;48.834;9.132;2023-05-10T02:17:30;97625.94;;;14.17;96.11
15694;BME280;7947;48.834;9.132;2023-05-10T02:20:36;97623.97;;;14.09;96.32
15694;BME280;7947;48.834;9.132;2023-05-10T02:23:40;97624.78;;;14.10;96.52
15694;BME280;7947;48.834;9.132;2023-05-10T02:26:44;97626.06;;;14.12;96.86
15694;BME280;7947;48.834;9.132;2023-05-10T02:29:48;97635.63;;;14.18;96.91
15694;BME280;7947;48.834;9.132;2023-05-10T02:32:52;97635.13;;;14.16;96.53
15694;BME280;7947;48.834;9.132;2023-05-10T02:35:57;97649.22;;;14.13;96.70
15694;BME280;7947;48.834;9.132;2023-05-10T02:39:01;97650.34;;;14.12;97.00
15694;BME280;7947;48.834;9.132;2023-05-10T02:42:05;97656.53;;;14.13;97.09
15694;BME280;7947;48.834;9.132;2023-05-10T02:45:11;97655.09;;;14.15;97.02
15694;BME280;7947;48.834;9.132;2023-05-10T02:48:15;97654.50;;;14.18;96.46
15694;BME280;7947;48.834;9.132;2023-05-10T02:51:23;97645.78;;;14.21;96.79
15694;BME280;7947;48.834;9.132;2023-05-10T02:54:30;97642.75;;;14.23;96.70
15694;BME280;7947;48.834;9.132;2023-05-10T02:57:38;97646.91;;;14.20;96.96
15694;BME280;7947;48.834;9.132;2023-05-10T03:00:43;97645.28;;;14.19;96.82
15694;BME280;7947;48.834;9.132;2023-05-10T03:03:46;97644.81;;;14.17;96.72
15694;BME280;7947;48.834;9.132;2023-05-10T03:06:50;97653.22;;;14.16;97.15
15694;BME280;7947;48.834;9.132;2023-05-10T03:09:53;97652.41;;;14.15;97.42
15694;BME280;7947;48.834;9.132;2023-05-10T03:13:03;97660.81;;;14.14;97.37
15694;BME280;7947;48.834;9.132;2023-05-10T03:16:12;97660.38;;;14.20;97.47
15694;BME280;7947;48.834;9.132;2023-05-10T03:19:22;97665.16;;;14.23;97.12
15694;BME280;7947;48.834;9.132;2023-05-10T03:22:31;97669.44;;;14.24;97.00
15694;BME280;7947;48.834;9.132;2023-05-10T03:25:34;97664.34;;;14.23;97.17
15694;BME280;7947;48.834;9.132;2023-05-10T03:28:38;97671.03;;;14.25;97.63
15694;BME280;7947;48.834;9.132;2023-05-10T03:31:42;97664.06;;;14.24;97.46
15694;BME280;7947;48.834;9.132;2023-05-10T03:34:45;97666.16;;;14.27;97.45
15694;BME280;7947;48.834;9.132;2023-05-10T03:37:49;97666.31;;;14.31;96.81
15694;BME280;7947;48.834;9.132;2023-05-10T03:40:52;97676.94;;;14.27;96.96
15694;BME280;7947;48.834;9.132;2023-05-10T03:43:54;97667.84;;;14.23;96.67
15694;BME280;7947;48.834;9.132;2023-05-10T03:46:57;97673.88;;;14.20;96.81
15694;BME280;7947;48.834;9.132;2023-05-10T03:50:00;97670.06;;;14.21;97.19
15694;BME280;7947;48.834;9.132;2023-05-10T03:53:05;97670.84;;;14.22;96.87
15694;BME280;7947;48.834;9.132;2023-05-10T03:56:08;97679.84;;;14.17;96.91
15694;BME280;7947;48.834;9.132;2023-05-10T03:59:10;97682.06;;;14.15;97.19
15694;BME280;7947;48.834;9.132;2023-05-10T04:02:13;97677.66;;;14.19;97.28
15694;BME280;7947;48.834;9.132;2023-05-10T04:05:16;97672.88;;;14.16;97.50
15694;BME280;7947;48.834;9.132;2023-05-10T04:08:20;97678.72;;;14.10;97.80
15694;BME280;7947;48.834;9.132;2023-05-10T04:11:23;97683.78;;;14.11;98.40
15694;BME280;7947;48.834;9.132;2023-05-10T04:14:26;97681.09;;;14.11;98.50
15694;BME280;7947;48.834;9.132;2023-05-10T04:17:29;97680.31;;;14.11;98.94
15694;BME280;7947;48.834;9.132;2023-05-10T04:20:32;97687.59;;;14.10;98.70
15694;BME280;7947;48.834;9.132;2023-05-10T04:23:37;97681.28;;;14.15;98.96
15694;BME280;7947;48.834;9.132;2023-05-10T04:26:39;97684.00;;;14.15;98.74
15694;BME280;7947;48.834;9.132;2023-05-10T04:29:42;97691.94;;;14.20;98.58
15694;BME280;7947;48.834;9.132;2023-05-10T04:32:45;97687.22;;;14.25;98.22
15694;BME280;7947;48.834;9.132;2023-05-10T04:35:48;97691.50;;;14.26;97.43
15694;BME280;7947;48.834;9.132;2023-05-10T04:38:52;97694.50;;;14.25;97.35
15694;BME280;7947;48.834;9.132;2023-05-10T04:41:55;97688.81;;;14.26;97.17
15694;BME280;7947;48.834;9.132;2023-05-10T04:44:58;97693.63;;;14.29;96.90
15694;BME280;7947;48.834;9.132;2023-05-10T04:48:00;97698.38;;;14.32;96.48
15694;BME280;7947;48.834;9.132;2023-05-10T04:51:03;97703.50;;;14.34;96.27
15694;BME280;7947;48.834;9.132;2023-05-10T04:54:09;97710.28;;;14.31;96.51
15694;BME280;7947;48.834;9.132;2023-05-10T04:57:11;97701.56;;;14.34;96.59
15694;BME280;7947;48.834;9.132;2023-05-10T05:00:15;97705.25;;;14.38;96.58
15694;BME280;7947;48.834;9.132;2023-05-10T05:03:18;97714.31;;;14.42;96.69
15694;BME280;7947;48.834;9.132;2023-05-10T05:06:21;97707.69;;;14.48;97.44
15694;BME280;7947;48.834;9.132;2023-05-10T05:09:27;97712.66;;;14.55;97.36
15694;BME280;7947;48.834;9.132;2023-05-10T05:12:30;97718.03;;;14.55;97.20
15694;BME280;7947;48.834;9.132;2023-05-10T05:15:33;97705.81;;;14.58;97.42
15694;BME280;7947;48.834;9.132;2023-05-10T05:18:36;97711.56;;;14.65;97.92
15694;BME280;7947;48.834;9.132;2023-05-10T05:21:39;97723.03;;;14.70;98.57
15694;BME280;7947;48.834;9.132;2023-05-10T05:24:43;97723.19;;;14.74;97.95
15694;BME280;7947;48.834;9.132;2023-05-10T05:27:46;97717.38;;;14.80;97.81
15694;BME280;7947;48.834;9.132;2023-05-10T05:30:49;97714.81;;;14.84;97.05
15694;BME280;7947;48.834;9.132;2023-05-10T05:33:52;97723.25;;;14.82;96.17
15694;BME280;7947;48.834;9.132;2023-05-10T05:36:55;97728.31;;;14.84;96.50
15694;BME280;7947;48.834;9.132;2023-05-10T05:39:59;97732.31;;;14.86;96.42
15694;BME280;7947;48.834;9.132;2023-05-10T05:43:04;97726.28;;;14.89;96.92
15694;BME280;7947;48.834;9.132;2023-05-10T05:46:07;97728.53;;;14.96;95.66
15694;BME280;7947;48.834;9.132;2023-05-10T05:49:10;97733.31;;;14.99;94.83
15694;BME280;7947;48.834;9.132;2023-05-10T05:52:13;97733.31;;;14.99;93.77
15694;BME280;7947;48.834;9.132;2023-05-10T05:55:17;97738.59;;;15.04;94.07
15694;BME280;7947;48.834;9.132;2023-05-10T05:58:20;97742.22;;;15.08;92.97
15694;BME280;7947;48.834;9.132;2023-05-10T06:01:23;97745.25;;;15.06;92.30
15694;BME280;7947;48.834;9.132;2023-05-10T06:04:26;97743.03;;;15.08;92.67
15694;BME280;7947;48.834;9.132;2023-05-10T06:07:29;97739.41;;;15.13;92.63
15694;BME280;7947;48.834;9.132;2023-05-10T06:10:33;97747.34;;;15.18;92.27
15694;BME280;7947;48.834;9.132;2023-05-10T06:13:36;97749.28;;;15.17;92.24
15694;BME280;7947;48.834;9.132;2023-05-10T06:16:38;97751.66;;;15.19;92.36
15694;BME280;7947;48.834;9.132;2023-05-10T06:19:42;97758.63;;;15.20;92.95
15694;BME280;7947;48.834;9.132;2023-05-10T06:22:44;97755.59;;;15.21;92.61
15694;BME280;7947;48.834;9.132;2023-05-10T06:25:48;97760.72;;;15.23;92.66
15694;BME280;7947;48.834;9.132;2023-05-10T06:28:51;97762.31;;;15.24;92.72
15694;BME280;7947;48.834;9.132;2023-05-10T06:31:54;97756.09;;;15.23;92.72
15694;BME280;7947;48.834;9.132;2023-05-10T06:34:57;97765.66;;;15.29;92.27
15694;BME280;7947;48.834;9.132;2023-05-10T06:37:59;97765.50;;;15.26;91.57
15694;BME280;7947;48.834;9.132;2023-05-10T06:41:03;97763.28;;;15.28;91.58
15694;BME280;7947;48.834;9.132;2023-05-10T06:44:06;97765.81;;;15.33;91.54
15694;BME280;7947;48.834;9.132;2023-05-10T06:47:10;97764.56;;;15.39;91.11
15694;BME280;7947;48.834;9.132;2023-05-10T06:50:12;97756.03;;;15.46;90.13
15694;BME280;7947;48.834;9.132;2023-05-10T06:53:15;97769.56;;;15.54;88.74
15694;BME280;7947;48.834;9.132;2023-05-10T06:56:19;97766.72;;;15.59;89.01
15694;BME280;7947;48.834;9.132;2023-05-10T06:59:22;97774.66;;;15.64;89.07
15694;BME280;7947;48.834;9.132;2023-05-10T07:02:25;97769.13;;;15.69;88.01
15694;BME280;7947;48.834;9.132;2023-05-10T07:05:28;97767.53;;;15.77;86.55
15694;BME280;7947;48.834;9.132;2023-05-10T07:08:31;97765.94;;;15.76;86.27
15694;BME280;7947;48.834;9.132;2023-05-10T07:11:36;97764.69;;;15.73;86.65
15694;BME280;7947;48.834;9.132;2023-05-10T07:14:39;97775.63;;;15.85;86.68
15694;BME280;7947;48.834;9.132;2023-05-10T07:17:41;97779.50;;;15.93;84.15
15694;BME280;7947;48.834;9.132;2023-05-10T07:20:46;97779.50;;;15.93;84.37
15694;BME280;7947;48.834;9.132;2023-05-10T07:23:49;97787.59;;;16.01;84.25
15694;BME280;7947;48.834;9.132;2023-05-10T07:26:54;97784.09;;;16.01;83.76
15694;BME280;7947;48.834;9.132;2023-05-10T07:29:57;97781.72;;;16.08;83.85
15694;BME280;7947;48.834;9.132;2023-05-10T07:33:00;97778.22;;;16.07;83.34
15694;BME280;7947;48.834;9.132;2023-05-10T07:36:03;97788.38;;;16.10;83.64
15694;BME280;7947;48.834;9.132;2023-05-10T07:39:05;97787.09;;;16.16;84.93
15694;BME280;7947;48.834;9.132;2023-05-10T07:42:10;97790.78;;;16.20;83.04
15694;BME280;7947;48.834;9.132;2023-05-10T07:45:13;97790.28;;;16.18;84.14
15694;BME280;7947;48.834;9.132;2023-05-10T07:48:16;97790.16;;;16.23;85.01
15694;BME280;7947;48.834;9.132;2023-05-10T07:51:19;97796.81;;;16.26;81.31
15694;BME280;7947;48.834;9.132;2023-05-10T07:54:22;97793.00;;;16.27;81.27
15694;BME280;7947;48.834;9.132;2023-05-10T07:57:26;97808.28;;;16.32;81.90
15694;BME280;7947;48.834;9.132;2023-05-10T08:00:29;97804.94;;;16.35;80.16
15694;BME280;7947;48.834;9.132;2023-05-10T08:03:32;97804.47;;;16.33;79.81
15694;BME280;7947;48.834;9.132;2023-05-10T08:06:35;97803.50;;;16.28;79.76
15694;BME280;7947;48.834;9.132;2023-05-10T08:09:38;97801.28;;;16.31;79.31
15694;BME280;7947;48.834;9.132;2023-05-10T08:12:42;97798.09;;;16.28;79.80
15694;BME280;7947;48.834;9.132;2023-05-10T08:15:45;97802.88;;;16.23;80.38
15694;BME280;7947;48.834;9.132;2023-05-10T08:18:48;97813.53;;;16.28;81.09
15694;BME280;7947;48.834;9.132;2023-05-10T08:21:52;97798.09;;;16.28;80.01
15694;BME280;7947;48.834;9.132;2023-05-10T08:24:56;97804.63;;;16.27;79.13
15694;BME280;7947;48.834;9.132;2023-05-10T08:28:00;97810.81;;;16.28;76.05
15694;BME280;7947;48.834;9.132;2023-05-10T08:31:04;97819.25;;;16.26;75.66
15694;BME280;7947;48.834;9.132;2023-05-10T08:34:08;97817.97;;;16.24;76.21
15694;BME280;7947;48.834;9.132;2023-05-10T08:37:10;97818.16;;;16.27;75.61
15694;BME280;7947;48.834;9.132;2023-05-10T08:40:15;97818.16;;;16.27;74.65
15694;BME280;7947;48.834;9.132;2023-05-10T08:43:19;97815.59;;;16.22;76.49
15694;BME280;7947;48.834;9.132;2023-05-10T08:46:22;97818.16;;;16.36;76.56
15694;BME280;7947;48.834;9.132;2023-05-10T08:49:27;97817.19;;;16.41;76.45
15694;BME280;7947;48.834;9.132;2023-05-10T08:52:30;97818.34;;;16.48;76.47
15694;BME280;7947;48.834;9.132;2023-05-10T08:55:36;97825.00;;;16.59;74.98
15694;BME280;7947;48.834;9.132;2023-05-10T08:58:41;97825.81;;;16.60;75.59
15694;BME280;7947;48.834;9.132;2023-05-10T09:01:44;97830.56;;;16.71;74.55
15694;BME280;7947;48.834;9.132;2023-05-10T09:04:49;97835.66;;;16.73;74.20
15694;BME280;7947;48.834;9.132;2023-05-10T09:07:53;97838.03;;;16.83;73.12
15694;BME280;7947;48.834;9.132;2023-05-10T09:10:56;97834.97;;;16.93;73.68
15694;BME280;7947;48.834;9.132;2023-05-10T09:14:01;97843.41;;;17.00;74.21
15694;BME280;7947;48.834;9.132;2023-05-10T09:17:04;97840.69;;;17.08;71.42
15694;BME280;7947;48.834;9.132;2023-05-10T09:20:07;97839.72;;;17.04;71.57
15694;BME280;7947;48.834;9.132;2023-05-10T09:23:10;97854.09;;;17.05;72.63
15694;BME280;7947;48.834;9.132;2023-05-10T09:26:13;97846.59;;;17.02;69.80
15694;BME280;7947;48.834;9.132;2023-05-10T09:29:17;97852.47;;;17.04;70.21
15694;BME280;7947;48.834;9.132;2023-05-10T09:32:21;97842.72;;;17.11;70.08
15694;BME280;7947;48.834;9.132;2023-05-10T09:35:25;97840.97;;;17.15;71.82
15694;BME280;7947;48.834;9.132;2023-05-10T09:38:44;97847.81;;;17.22;71.02
15694;BME280;7947;48.834;9.132;2023-05-10T09:41:47;97858.97;;;17.20;69.97
15694;BME280;7947;48.834;9.132;2023-05-10T09:44:52;97848.81;;;17.08;69.13
15694;BME280;7947;48.834;9.132;2023-05-10T09:47:55;97855.03;;;16.92;71.36
15694;BME280;7947;48.834;9.132;2023-05-10T09:50:58;97856.19;;;16.82;72.23
15694;BME280;7947;48.834;9.132;2023-05-10T09:54:11;97855.09;;;16.75;73.78
15694;BME280;7947;48.834;9.132;2023-05-10T09:57:20;97860.97;;;16.77;72.67
15694;BME280;7947;48.834;9.132;2023-05-10T10:00:25;97864.31;;;16.82;73.30
15694;BME280;7947;48.834;9.132;2023-05-10T10:03:28;97858.25;;;16.85;72.37
15694;BME280;7947;48.834;9.132;2023-05-10T10:06:36;97860.16;;;16.76;72.86
15694;BME280;7947;48.834;9.132;2023-05-10T10:09:40;97858.28;;;16.68;73.90
15694;BME280;7947;48.834;9.132;2023-05-10T10:12:43;97863.22;;;16.58;75.36
15694;BME280;7947;48.834;9.132;2023-05-10T10:15:47;97866.25;;;16.56;77.42
15694;BME280;7947;48.834;9.132;2023-05-10T10:18:52;97859.88;;;16.61;74.75
15694;BME280;7947;48.834;9.132;2023-05-10T10:21:55;97861.13;;;16.80;74.83
15694;BME280;7947;48.834;9.132;2023-05-10T10:24:58;97852.66;;;16.90;74.47
15694;BME280;7947;48.834;9.132;2023-05-10T10:28:11;97849.59;;;17.09;74.40
15694;BME280;7947;48.834;9.132;2023-05-10T10:31:26;97848.28;;;17.15;73.36
15694;BME280;7947;48.834;9.132;2023-05-10T10:34:31;97852.94;;;17.06;71.48
15694;BME280;7947;48.834;9.132;2023-05-10T10:37:43;97862.03;;;17.10;72.90
15694;BME280;7947;48.834;9.132;2023-05-10T10:40:47;97855.91;;;17.30;71.33
15694;BME280;7947;48.834;9.132;2023-05-10T10:44:32;97859.06;;;17.49;69.43
15694;BME280;7947;48.834;9.132;2023-05-10T10:47:36;97857.94;;;17.79;69.15
15694;BME280;7947;48.834;9.132;2023-05-10T10:50:45;97860.63;;;17.88;68.57
15694;BME280;7947;48.834;9.132;2023-05-10T10:53:48;97864.25;;;17.92;64.93
15694;BME280;7947;48.834;9.132;2023-05-10T10:57:12;97856.91;;;17.92;62.44
15694;BME280;7947;48.834;9.132;2023-05-10T11:00:35;97862.25;;;18.10;64.44
15694;BME280;7947;48.834;9.132;2023-05-10T11:03:38;97866.28;;;18.24;61.72
15694;BME280;7947;48.834;9.132;2023-05-10T11:06:41;97867.25;;;18.20;60.46
15694;BME280;7947;48.834;9.132;2023-05-10T11:09:45;97873.56;;;18.12;60.64
15694;BME280;7947;48.834;9.132;2023-05-10T11:12:52;97882.91;;;17.93;61.36
15694;BME280;7947;48.834;9.132;2023-05-10T11:15:59;97869.94;;;17.78;63.98
15694;BME280;7947;48.834;9.132;2023-05-10T11:19:13;97874.28;;;17.71;61.99
15694;BME280;7947;48.834;9.132;2023-05-10T11:22:16;97871.72;;;17.66;60.94
15694;BME280;7947;48.834;9.132;2023-05-10T11:25:19;97868.13;;;17.53;62.05
15694;BME280;7947;48.834;9.132;2023-05-10T11:28:22;97855.84;;;17.47;60.98
15694;BME280;7947;48.834;9.132;2023-05-10T11:31:27;97855.84;;;17.47;61.38
15694;BME280;7947;48.834;9.132;2023-05-10T11:34:31;97863.44;;;17.71;60.36
15694;BME280;7947;48.834;9.132;2023-05-10T11:37:35;97869.03;;;17.95;60.89
15694;BME280;7947;48.834;9.132;2023-05-10T11:40:40;97867.66;;;18.10;60.07
15694;BME280;7947;48.834;9.132;2023-05-10T11:43:45;97867.94;;;18.17;59.99
15694;BME280;7947;48.834;9.132;2023-05-10T11:46:51;97867.66;;;18.10;60.03
15694;BME280;7947;48.834;9.132;2023-05-10T11:49:54;97878.91;;;17.99;58.61
15694;BME280;7947;48.834;9.132;2023-05-10T11:52:57;97877.06;;;17.83;58.15
15694;BME280;7947;48.834;9.132;2023-05-10T11:56:05;97873.84;;;17.60;61.13
15694;BME280;7947;48.834;9.132;2023-05-10T11:59:07;97878.03;;;17.49;60.74
15694;BME280;7947;48.834;9.132;2023-05-10T12:02:12;97876.44;;;17.40;62.35
15694;BME280;7947;48.834;9.132;2023-05-10T12:05:16;97877.41;;;17.35;62.98
15694;BME280;7947;48.834;9.132;2023-05-10T12:08:21;97881.28;;;17.26;62.30
15694;BME280;7947;48.834;9.132;2023-05-10T12:11:25;97888.47;;;17.22;62.55
15694;BME280;7947;48.834;9.132;2023-05-10T12:14:28;97889.25;;;17.22;62.94
15694;BME280;7947;48.834;9.132;2023-05-10T12:17:37;97891.97;;;17.22;65.27
15694;BME280;7947;48.834;9.132;2023-05-10T12:20:43;97896.72;;;17.25;66.16
15694;BME280;7947;48.834;9.132;2023-05-10T12:23:46;97904.19;;;17.37;64.78
15694;BME280;7947;48.834;9.132;2023-05-10T12:26:50;97891.41;;;17.46;64.80
15694;BME280;7947;48.834;9.132;2023-05-10T12:29:52;97901.94;;;17.47;61.21
15694;BME280;7947;48.834;9.132;2023-05-10T12:33:01;97902.72;;;17.56;57.77
15694;BME280;7947;48.834;9.132;2023-05-10T12:36:05;97897.63;;;17.55;59.73
15694;BME280;7947;48.834;9.132;2023-05-10T12:39:08;97904.81;;;17.59;58.87
15694;BME280;7947;48.834;9.132;2023-05-10T12:42:11;97904.94;;;17.63;58.08
15694;BME280;7947;48.834;9.132;2023-05-10T12:45:14;97908.13;;;17.65;58.83
15694;BME280;7947;48.834;9.132;2023-05-10T12:48:19;97907.59;;;17.71;57.78
15694;BME280;7947;48.834;9.132;2023-05-10T12:51:21;97907.47;;;17.68;57.23
15694;BME280;7947;48.834;9.132;2023-05-10T12:54:24;97910.63;;;17.70;58.02
15694;BME280;7947;48.834;9.132;2023-05-10T12:57:27;97907.28;;;17.73;58.01
15694;BME280;7947;48.834;9.132;2023-05-10T13:00:30;97904.59;;;17.64;58.95
15694;BME280;7947;48.834;9.132;2023-05-10T13:03:34;97911.47;;;17.62;61.13
15694;BME280;7947;48.834;9.132;2023-05-10T13:06:37;97901.41;;;17.62;61.37
15694;BME280;7947;48.834;9.132;2023-05-10T13:09:39;97904.00;;;17.59;60.07
15694;BME280;7947;48.834;9.132;2023-05-10T13:12:42;97897.00;;;17.49;59.33
15694;BME280;7947;48.834;9.132;2023-05-10T13:15:45;97908.31;;;17.43;57.94
15694;BME280;7947;48.834;9.132;2023-05-10T13:18:49;97903.41;;;17.36;57.90
15694;BME280;7947;48.834;9.132;2023-05-10T13:21:52;97897.88;;;17.24;58.81
15694;BME280;7947;48.834;9.132;2023-05-10T13:24:55;97897.25;;;17.19;60.72
15694;BME280;7947;48.834;9.132;2023-05-10T13:27:57;97902.81;;;17.22;61.19
15694;BME280;7947;48.834;9.132;2023-05-10T13:31:00;97901.66;;;17.32;59.05
15694;BME280;7947;48.834;9.132;2023-05-10T13:34:05;97897.19;;;17.36;59.71
15694;BME280;7947;48.834;9.132;2023-05-10T13:37:07;97896.25;;;17.32;58.10
15694;BME280;7947;48.834;9.132;2023-05-10T13:40:10;97894.81;;;17.34;59.41
15694;BME280;7947;48.834;9.132;2023-05-10T13:43:13;97888.72;;;17.37;58.79
15694;BME280;7947;48.834;9.132;2023-05-10T13:46:16;97888.06;;;17.40;58.63
15694;BME280;7947;48.834;9.132;2023-05-10T13:49:21;97889.66;;;17.41;57.93
15694;BME280;7947;48.834;9.132;2023-05-10T13:52:24;97887.91;;;17.45;58.65
15694;BME280;7947;48.834;9.132;2023-05-10T13:55:27;97881.88;;;17.40;57.57
15694;BME280;7947;48.834;9.132;2023-05-10T13:58:30;97882.97;;;17.39;60.00
15694;BME280;7947;48.834;9.132;2023-05-10T14:01:33;97881.41;;;17.38;57.42
15694;BME280;7947;48.834;9.132;2023-05-10T14:04:37;97876.94;;;17.33;56.47
15694;BME280;7947;48.834;9.132;2023-05-10T14:07:39;97878.22;;;17.36;56.41
15694;BME280;7947;48.834;9.132;2023-05-10T14:10:42;97885.81;;;17.42;54.70
15694;BME280;7947;48.834;9.132;2023-05-10T14:13:45;97876.44;;;17.48;55.82
15694;BME280;7947;48.834;9.132;2023-05-10T14:16:48;97872.25;;;17.59;54.46
15694;BME280;7947;48.834;9.132;2023-05-10T14:19:52;97887.19;;;17.65;52.63
15694;BME280;7947;48.834;9.132;2023-05-10T14:22:55;97876.03;;;17.67;53.40
15694;BME280;7947;48.834;9.132;2023-05-10T14:25:58;97881.13;;;17.68;54.32
15694;BME280;7947;48.834;9.132;2023-05-10T14:29:01;97884.25;;;17.79;54.23
15694;BME280;7947;48.834;9.132;2023-05-10T14:32:04;97884.13;;;17.75;54.07
15694;BME280;7947;48.834;9.132;2023-05-10T14:35:08;97873.00;;;17.68;54.59
15694;BME280;7947;48.834;9.132;2023-05-10T14:38:14;97875.84;;;17.72;53.99
15694;BME280;7947;48.834;9.132;2023-05-10T14:41:17;97880.19;;;17.64;54.88
15694;BME280;7947;48.834;9.132;2023-05-10T14:44:20;97880.47;;;17.71;55.48
15694;BME280;7947;48.834;9.132;2023-05-10T14:47:23;97879.22;;;17.69;56.30
15694;BME280;7947;48.834;9.132;2023-05-10T14:50:27;97876.03;;;17.67;56.82
15694;BME280;7947;48.834;9.132;2023-05-10T14:53:37;97877.00;;;17.71;58.07
15694;BME280;7947;48.834;9.132;2023-05-10T14:56:39;97876.28;;;17.82;56.36
15694;BME280;7947;48.834;9.132;2023-05-10T14:59:43;97873.75;;;17.77;57.76
15694;BME280;7947;48.834;9.132;2023-05-10T15:02:46;97872.81;;;17.73;56.48
15694;BME280;7947;48.834;9.132;2023-05-10T15:05:51;97871.56;;;17.71;57.30
15694;BME280;7947;48.834;9.132;2023-05-10T15:08:54;97878.69;;;17.75;57.60
15694;BME280;7947;48.834;9.132;2023-05-10T15:11:57;97867.84;;;17.75;58.22
15694;BME280;7947;48.834;9.132;2023-05-10T15:15:00;97864.03;;;17.76;58.21
15694;BME280;7947;48.834;9.132;2023-05-10T15:18:02;97868.84;;;17.71;58.49
15694;BME280;7947;48.834;9.132;2023-05-10T15:21:07;97864.25;;;17.63;60.29
15694;BME280;7947;48.834;9.132;2023-05-10T15:24:10;97866.16;;;17.62;59.16
15694;BME280;7947;48.834;9.132;2023-05-10T15:27:13;97872.56;;;17.58;58.65
15694;BME280;7947;48.834;9.132;2023-05-10T15:30:15;97878.44;;;17.60;58.32
15694;BME280;7947;48.834;9.132;2023-05-10T15:33:18;97877.81;;;17.63;60.70
15694;BME280;7947;48.834;9.132;2023-05-10T15:36:22;97873.19;;;17.63;59.06
15694;BME280;7947;48.834;9.132;2023-05-10T15:39:25;97877.47;;;17.64;59.41
15694;BME280;7947;48.834;9.132;2023-05-10T15:42:27;97877.69;;;17.59;58.78
15694;BME280;7947;48.834;9.132;2023-05-10T15:45:31;97873.69;;;17.57;58.42
15694;BME280;7947;48.834;9.132;2023-05-10T15:48:37;97882.78;;;17.52;59.59
15694;BME280;7947;48.834;9.132;2023-05-10T15:51:41;97884.06;;;17.55;58.67
15694;BME280;7947;48.834;9.132;2023-05-10T15:54:44;97889.03;;;17.53;60.04
15694;BME280;7947;48.834;9.132;2023-05-10T15:57:47;97884.41;;;17.53;62.49
15694;BME280;7947;48.834;9.132;2023-05-10T16:00:50;97887.13;;;17.53;60.06
15694;BME280;7947;48.834;9.132;2023-05-10T16:03:53;97879.75;;;17.54;58.46
15694;BME280;7947;48.834;9.132;2023-05-10T16:06:57;97885.97;;;17.54;59.16
15694;BME280;7947;48.834;9.132;2023-05-10T16:10:00;97896.22;;;17.49;60.44
15694;BME280;7947;48.834;9.132;2023-05-10T16:13:04;97892.06;;;17.43;59.07
15694;BME280;7947;48.834;9.132;2023-05-10T16:16:07;97902.28;;;17.37;58.50
15694;BME280;7947;48.834;9.132;2023-05-10T16:19:10;97890.97;;;17.35;58.67
15694;BME280;7947;48.834;9.132;2023-05-10T16:22:14;97898.34;;;17.26;59.85
15694;BME280;7947;48.834;9.132;2023-05-10T16:25:17;97895.97;;;17.25;60.11
15694;BME280;7947;48.834;9.132;2023-05-10T16:28:20;97902.34;;;17.20;59.26